sensor_id;sensor_type;location;lat;lon;timestamp;P1;durP1;ratioP1;P2;durP2;ratioP2
17171;SDS011;8701;50.150;8.756;2023-12-20T00:01:30;6.90;;;5.30;;
17171;SDS011;8701;50.150;8.756;2023-12-20T00:05:34;6.67;;;5.10;;
17171;SDS011;8701;50.150;8.756;2023-12-20T00:09:38;7.23;;;5.00;;
17171;SDS011;8701;50.150;8.756;2023-12-20T00:13:40;8.30;;;5.27;;
17171;SDS011;8701;50.150;8.756;2023-12-20T00:17:43;6.00;;;5.07;;
17171;SDS011;8701;50.150;8.756;2023-12-20T00:21:46;4.80;;;4.30;;
17171;SDS011;8701;50.150;8.756;2023-12-20T00:25:48;6.43;;;4.97;;
17171;SDS011;8701;50.150;8.756;2023-12-20T00:29:51;5.80;;;4.13;;
17171;SDS011;8701;50.150;8.756;2023-12-20T00:33:53;5.10;;;4.50;;
17171;SDS011;8701;50.150;8.756;2023-12-20T00:37:57;5.80;;;4.43;;
17171;SDS011;8701;50.150;8.756;2023-12-20T00:42:00;4.87;;;4.37;;
17171;SDS011;8701;50.150;8.756;2023-12-20T00:46:02;4.53;;;3.90;;
17171;SDS011;8701;50.150;8.756;2023-12-20T00:50:05;4.97;;;4.07;;
17171;SDS011;8701;50.150;8.756;2023-12-20T00:54:09;5.27;;;3.80;;
17171;SDS011;8701;50.150;8.756;2023-12-20T00:58:11;6.50;;;3.90;;
17171;SDS011;8701;50.150;8.756;2023-12-20T01:02:15;4.40;;;3.90;;
17171;SDS011;8701;50.150;8.756;2023-12-20T01:06:18;5.10;;;4.20;;
17171;SDS011;8701;50.150;8.756;2023-12-20T01:10:21;5.90;;;3.83;;
17171;SDS011;8701;50.150;8.756;2023-12-20T01:14:24;5.37;;;3.90;;
17171;SDS011;8701;50.150;8.756;2023-12-20T01:18:26;4.20;;;3.80;;
17171;SDS011;8701;50.150;8.756;2023-12-20T01:22:28;4.30;;;3.90;;
17171;SDS011;8701;50.150;8.756;2023-12-20T01:26:32;4.23;;;3.83;;
17171;SDS011;8701;50.150;8.756;2023-12-20T01:30:35;4.63;;;4.20;;
17171;SDS011;8701;50.150;8.756;2023-12-20T01:34:37;4.70;;;3.90;;
17171;SDS011;8701;50.150;8.756;2023-12-20T01:38:39;4.63;;;3.80;;
17171;SDS011;8701;50.150;8.756;2023-12-20T01:42:42;4.70;;;3.97;;
17171;SDS011;8701;50.150;8.756;2023-12-20T01:46:45;6.57;;;3.57;;
17171;SDS011;8701;50.150;8.756;2023-12-20T01:50:47;4.07;;;3.67;;
17171;SDS011;8701;50.150;8.756;2023-12-20T01:54:50;5.30;;;4.17;;
17171;SDS011;8701;50.150;8.756;2023-12-20T01:58:56;3.93;;;3.53;;
17171;SDS011;8701;50.150;8.756;2023-12-20T02:03:00;3.57;;;3.27;;
17171;SDS011;8701;50.150;8.756;2023-12-20T02:07:03;4.70;;;3.67;;
17171;SDS011;8701;50.150;8.756;2023-12-20T02:11:06;3.87;;;3.40;;
17171;SDS011;8701;50.150;8.756;2023-12-20T02:15:10;3.80;;;3.50;;
17171;SDS011;8701;50.150;8.756;2023-12-20T02:19:13;7.53;;;3.60;;
17171;SDS011;8701;50.150;8.756;2023-12-20T02:23:17;5.60;;;3.90;;
17171;SDS011;8701;50.150;8.756;2023-12-20T02:27:19;3.73;;;3.43;;
17171;SDS011;8701;50.150;8.756;2023-12-20T02:31:23;4.13;;;3.73;;
17171;SDS011;8701;50.150;8.756;2023-12-20T02:35:25;4.13;;;3.60;;
17171;SDS011;8701;50.150;8.756;2023-12-20T02:39:29;4.77;;;3.30;;
17171;SDS011;8701;50.150;8.756;2023-12-20T02:43:32;4.30;;;3.10;;
17171;SDS011;8701;50.150;8.756;2023-12-20T02:47:34;3.40;;;3.10;;
17171;SDS011;8701;50.150;8.756;2023-12-20T02:51:36;2.83;;;2.63;;
17171;SDS011;8701;50.150;8.756;2023-12-20T02:55:41;3.63;;;3.20;;
17171;SDS011;8701;50.150;8.756;2023-12-20T02:59:43;5.00;;;2.80;;
17171;SDS011;8701;50.150;8.756;2023-12-20T03:03:45;2.83;;;2.63;;
17171;SDS011;8701;50.150;8.756;2023-12-20T03:07:47;2.70;;;2.50;;
17171;SDS011;8701;50.150;8.756;2023-12-20T03:11:51;4.77;;;2.63;;
17171;SDS011;8701;50.150;8.756;2023-12-20T03:15:53;3.43;;;2.83;;
17171;SDS011;8701;50.150;8.756;2023-12-20T03:19:55;9.63;;;2.97;;
17171;SDS011;8701;50.150;8.756;2023-12-20T03:23:57;2.43;;;2.23;;
17171;SDS011;8701;50.150;8.756;2023-12-20T03:28:01;3.70;;;2.63;;
17171;SDS011;8701;50.150;8.756;2023-12-20T03:32:03;3.53;;;3.03;;
17171;SDS011;8701;50.150;8.756;2023-12-20T03:36:06;3.00;;;2.70;;
17171;SDS011;8701;50.150;8.756;2023-12-20T03:40:08;3.27;;;2.97;;
17171;SDS011;8701;50.150;8.756;2023-12-20T03:44:12;2.80;;;2.60;;
17171;SDS011;8701;50.150;8.756;2023-12-20T03:48:15;2.73;;;2.53;;
17171;SDS011;8701;50.150;8.756;2023-12-20T03:52:17;3.27;;;2.93;;
17171;SDS011;8701;50.150;8.756;2023-12-20T03:56:19;3.27;;;2.97;;
17171;SDS011;8701;50.150;8.756;2023-12-20T04:00:22;3.37;;;3.07;;
17171;SDS011;8701;50.150;8.756;2023-12-20T04:04:24;3.40;;;3.10;;
17171;SDS011;8701;50.150;8.756;2023-12-20T04:08:27;2.87;;;2.67;;
17171;SDS011;8701;50.150;8.756;2023-12-20T04:12:29;4.60;;;4.13;;
17171;SDS011;8701;50.150;8.756;2023-12-20T04:16:32;2.80;;;2.60;;
17171;SDS011;8701;50.150;8.756;2023-12-20T04:20:35;2.50;;;2.40;;
17171;SDS011;8701;50.150;8.756;2023-12-20T04:24:37;3.17;;;2.90;;
17171;SDS011;8701;50.150;8.756;2023-12-20T04:28:39;2.80;;;2.60;;
17171;SDS011;8701;50.150;8.756;2023-12-20T04:32:42;3.57;;;2.77;;
17171;SDS011;8701;50.150;8.756;2023-12-20T04:36:44;2.97;;;2.73;;
17171;SDS011;8701;50.150;8.756;2023-12-20T04:40:47;2.87;;;2.60;;
17171;SDS011;8701;50.150;8.756;2023-12-20T04:44:50;3.20;;;2.90;;
17171;SDS011;8701;50.150;8.756;2023-12-20T04:48:54;3.00;;;2.80;;
17171;SDS011;8701;50.150;8.756;2023-12-20T04:52:56;3.60;;;3.20;;
17171;SDS011;8701;50.150;8.756;2023-12-20T04:56:58;4.00;;;2.90;;
17171;SDS011;8701;50.150;8.756;2023-12-20T05:01:00;3.00;;;2.80;;
17171;SDS011;8701;50.150;8.756;2023-12-20T05:05:04;3.33;;;3.03;;
17171;SDS011;8701;50.150;8.756;2023-12-20T05:09:06;3.13;;;2.83;;
17171;SDS011;8701;50.150;8.756;2023-12-20T05:13:09;3.07;;;2.87;;
17171;SDS011;8701;50.150;8.756;2023-12-20T05:17:11;2.77;;;2.57;;
17171;SDS011;8701;50.150;8.756;2023-12-20T05:21:15;3.17;;;2.87;;
17171;SDS011;8701;50.150;8.756;2023-12-20T05:25:17;4.90;;;2.70;;
17171;SDS011;8701;50.150;8.756;2023-12-20T05:29:19;6.13;;;3.00;;
17171;SDS011;8701;50.150;8.756;2023-12-20T05:33:22;5.07;;;3.10;;
17171;SDS011;8701;50.150;8.756;2023-12-20T05:37:26;5.93;;;3.40;;
17171;SDS011;8701;50.150;8.756;2023-12-20T05:41:28;7.00;;;3.20;;
17171;SDS011;8701;50.150;8.756;2023-12-20T05:45:30;3.70;;;3.30;;
17171;SDS011;8701;50.150;8.756;2023-12-20T05:49:32;3.30;;;3.00;;
17171;SDS011;8701;50.150;8.756;2023-12-20T05:53:36;3.63;;;3.07;;
17171;SDS011;8701;50.150;8.756;2023-12-20T05:57:38;3.40;;;2.83;;
17171;SDS011;8701;50.150;8.756;2023-12-20T06:01:40;5.80;;;2.73;;
17171;SDS011;8701;50.150;8.756;2023-12-20T06:05:43;2.57;;;2.37;;
17171;SDS011;8701;50.150;8.756;2023-12-20T06:09:46;4.67;;;2.97;;
17171;SDS011;8701;50.150;8.756;2023-12-20T06:13:48;5.00;;;2.17;;
17171;SDS011;8701;50.150;8.756;2023-12-20T06:17:52;2.20;;;1.77;;
17171;SDS011;8701;50.150;8.756;2023-12-20T06:21:54;4.40;;;1.50;;
17171;SDS011;8701;50.150;8.756;2023-12-20T06:25:58;4.60;;;1.80;;
17171;SDS011;8701;50.150;8.756;2023-12-20T06:30:00;1.90;;;1.43;;
17171;SDS011;8701;50.150;8.756;2023-12-20T06:34:03;3.13;;;1.40;;
17171;SDS011;8701;50.150;8.756;2023-12-20T06:38:05;3.70;;;2.00;;
17171;SDS011;8701;50.150;8.756;2023-12-20T06:42:08;5.73;;;2.10;;
17171;SDS011;8701;50.150;8.756;2023-12-20T06:46:10;5.80;;;1.80;;
17171;SDS011;8701;50.150;8.756;2023-12-20T06:50:13;2.20;;;1.53;;
17171;SDS011;8701;50.150;8.756;2023-12-20T06:54:16;2.60;;;1.60;;
17171;SDS011;8701;50.150;8.756;2023-12-20T06:58:19;7.97;;;1.93;;
17171;SDS011;8701;50.150;8.756;2023-12-20T07:02:21;4.40;;;1.93;;
17171;SDS011;8701;50.150;8.756;2023-12-20T07:06:23;2.53;;;1.60;;
17171;SDS011;8701;50.150;8.756;2023-12-20T07:10:26;5.83;;;2.20;;
17171;SDS011;8701;50.150;8.756;2023-12-20T07:14:29;4.73;;;2.40;;
17171;SDS011;8701;50.150;8.756;2023-12-20T07:18:32;5.70;;;1.80;;
17171;SDS011;8701;50.150;8.756;2023-12-20T07:22:34;5.03;;;2.23;;
17171;SDS011;8701;50.150;8.756;2023-12-20T07:26:36;7.33;;;2.67;;
17171;SDS011;8701;50.150;8.756;2023-12-20T07:30:41;2.53;;;2.13;;
17171;SDS011;8701;50.150;8.756;2023-12-20T07:34:43;6.60;;;2.40;;
17171;SDS011;8701;50.150;8.756;2023-12-20T07:38:45;2.17;;;1.67;;
17171;SDS011;8701;50.150;8.756;2023-12-20T07:42:48;3.80;;;1.77;;
17171;SDS011;8701;50.150;8.756;2023-12-20T07:46:52;4.40;;;2.00;;
17171;SDS011;8701;50.150;8.756;2023-12-20T07:50:54;5.07;;;2.83;;
17171;SDS011;8701;50.150;8.756;2023-12-20T07:54:56;6.77;;;3.73;;
17171;SDS011;8701;50.150;8.756;2023-12-20T07:58:58;10.60;;;2.97;;
17171;SDS011;8701;50.150;8.756;2023-12-20T08:03:02;4.90;;;2.27;;
17171;SDS011;8701;50.150;8.756;2023-12-20T08:07:04;2.10;;;1.83;;
17171;SDS011;8701;50.150;8.756;2023-12-20T08:11:06;5.40;;;2.60;;
17171;SDS011;8701;50.150;8.756;2023-12-20T08:15:09;3.63;;;1.80;;
17171;SDS011;8701;50.150;8.756;2023-12-20T08:19:17;8.33;;;2.00;;
17171;SDS011;8701;50.150;8.756;2023-12-20T08:23:19;3.10;;;1.43;;
17171;SDS011;8701;50.150;8.756;2023-12-20T08:27:22;2.67;;;1.73;;
17171;SDS011;8701;50.150;8.756;2023-12-20T08:31:24;3.67;;;1.47;;
17171;SDS011;8701;50.150;8.756;2023-12-20T08:35:28;10.80;;;1.80;;
17171;SDS011;8701;50.150;8.756;2023-12-20T08:39:30;3.97;;;1.70;;
17171;SDS011;8701;50.150;8.756;2023-12-20T08:43:34;5.27;;;1.70;;
17171;SDS011;8701;50.150;8.756;2023-12-20T08:47:37;5.43;;;2.17;;
17171;SDS011;8701;50.150;8.756;2023-12-20T08:51:40;6.97;;;1.93;;
17171;SDS011;8701;50.150;8.756;2023-12-20T08:55:42;8.80;;;1.43;;
17171;SDS011;8701;50.150;8.756;2023-12-20T08:59:45;6.10;;;1.90;;
17171;SDS011;8701;50.150;8.756;2023-12-20T09:03:47;2.87;;;1.47;;
17171;SDS011;8701;50.150;8.756;2023-12-20T09:07:50;4.93;;;1.53;;
17171;SDS011;8701;50.150;8.756;2023-12-20T09:11:52;7.60;;;1.83;;
17171;SDS011;8701;50.150;8.756;2023-12-20T09:15:54;3.33;;;1.53;;
17171;SDS011;8701;50.150;8.756;2023-12-20T09:19:57;2.97;;;1.47;;
17171;SDS011;8701;50.150;8.756;2023-12-20T09:24:01;4.30;;;1.50;;
17171;SDS011;8701;50.150;8.756;2023-12-20T09:28:04;7.47;;;1.93;;
17171;SDS011;8701;50.150;8.756;2023-12-20T09:32:06;4.50;;;1.50;;
17171;SDS011;8701;50.150;8.756;2023-12-20T09:36:09;3.20;;;1.93;;
17171;SDS011;8701;50.150;8.756;2023-12-20T09:40:13;3.13;;;1.53;;
17171;SDS011;8701;50.150;8.756;2023-12-20T09:44:15;4.27;;;1.97;;
17171;SDS011;8701;50.150;8.756;2023-12-20T09:48:18;2.50;;;1.90;;
17171;SDS011;8701;50.150;8.756;2023-12-20T09:52:21;3.60;;;1.77;;
17171;SDS011;8701;50.150;8.756;2023-12-20T09:56:27;5.67;;;2.10;;
17171;SDS011;8701;50.150;8.756;2023-12-20T10:00:29;4.20;;;1.90;;
17171;SDS011;8701;50.150;8.756;2023-12-20T10:04:32;8.60;;;2.30;;
17171;SDS011;8701;50.150;8.756;2023-12-20T10:08:34;4.70;;;1.90;;
17171;SDS011;8701;50.150;8.756;2023-12-20T10:12:37;4.60;;;2.20;;
17171;SDS011;8701;50.150;8.756;2023-12-20T10:16:40;10.13;;;2.47;;
17171;SDS011;8701;50.150;8.756;2023-12-20T10:20:42;4.67;;;1.80;;
17171;SDS011;8701;50.150;8.756;2023-12-20T10:24:46;10.40;;;2.13;;
17171;SDS011;8701;50.150;8.756;2023-12-20T10:28:51;5.13;;;2.00;;
17171;SDS011;8701;50.150;8.756;2023-12-20T10:32:54;6.20;;;1.87;;
17171;SDS011;8701;50.150;8.756;2023-12-20T10:36:57;6.83;;;2.00;;
17171;SDS011;8701;50.150;8.756;2023-12-20T10:41:01;5.03;;;2.10;;
17171;SDS011;8701;50.150;8.756;2023-12-20T10:45:09;7.17;;;2.03;;
17171;SDS011;8701;50.150;8.756;2023-12-20T10:49:11;3.80;;;1.90;;
17171;SDS011;8701;50.150;8.756;2023-12-20T10:53:14;3.70;;;1.83;;
17171;SDS011;8701;50.150;8.756;2023-12-20T10:57:18;7.87;;;2.17;;
17171;SDS011;8701;50.150;8.756;2023-12-20T11:01:22;3.80;;;1.80;;
17171;SDS011;8701;50.150;8.756;2023-12-20T11:05:26;7.70;;;2.10;;
17171;SDS011;8701;50.150;8.756;2023-12-20T11:09:34;7.07;;;2.00;;
17171;SDS011;8701;50.150;8.756;2023-12-20T11:13:40;3.27;;;1.90;;
17171;SDS011;8701;50.150;8.756;2023-12-20T11:17:55;2.73;;;2.00;;
17171;SDS011;8701;50.150;8.756;2023-12-20T11:21:58;6.90;;;1.93;;
17171;SDS011;8701;50.150;8.756;2023-12-20T11:26:00;6.60;;;1.80;;
17171;SDS011;8701;50.150;8.756;2023-12-20T11:30:04;4.63;;;2.03;;
17171;SDS011;8701;50.150;8.756;2023-12-20T11:34:13;4.43;;;1.73;;
17171;SDS011;8701;50.150;8.756;2023-12-20T11:38:16;9.00;;;1.97;;
17171;SDS011;8701;50.150;8.756;2023-12-20T11:42:19;8.00;;;2.00;;
17171;SDS011;8701;50.150;8.756;2023-12-20T11:46:22;3.43;;;1.67;;
17171;SDS011;8701;50.150;8.756;2023-12-20T11:50:25;5.20;;;2.23;;
17171;SDS011;8701;50.150;8.756;2023-12-20T11:54:29;9.00;;;2.40;;
17171;SDS011;8701;50.150;8.756;2023-12-20T11:58:32;5.53;;;1.97;;
17171;SDS011;8701;50.150;8.756;2023-12-20T12:02:34;10.73;;;1.80;;
17171;SDS011;8701;50.150;8.756;2023-12-20T12:06:38;11.90;;;1.93;;
17171;SDS011;8701;50.150;8.756;2023-12-20T12:10:40;5.97;;;1.90;;
17171;SDS011;8701;50.150;8.756;2023-12-20T12:14:43;7.30;;;2.10;;
17171;SDS011;8701;50.150;8.756;2023-12-20T12:18:46;6.93;;;1.40;;
17171;SDS011;8701;50.150;8.756;2023-12-20T12:23:01;3.90;;;1.40;;
17171;SDS011;8701;50.150;8.756;2023-12-20T12:27:05;4.80;;;2.00;;
17171;SDS011;8701;50.150;8.756;2023-12-20T12:31:08;3.87;;;1.80;;
17171;SDS011;8701;50.150;8.756;2023-12-20T12:35:14;4.43;;;1.40;;
17171;SDS011;8701;50.150;8.756;2023-12-20T12:39:18;3.97;;;1.33;;
17171;SDS011;8701;50.150;8.756;2023-12-20T12:43:21;4.53;;;1.53;;
17171;SDS011;8701;50.150;8.756;2023-12-20T12:47:24;5.57;;;1.53;;
17171;SDS011;8701;50.150;8.756;2023-12-20T12:51:27;4.17;;;1.63;;
17171;SDS011;8701;50.150;8.756;2023-12-20T12:55:30;2.90;;;1.73;;
17171;SDS011;8701;50.150;8.756;2023-12-20T12:59:32;6.30;;;1.47;;
17171;SDS011;8701;50.150;8.756;2023-12-20T13:03:35;7.47;;;1.40;;
17171;SDS011;8701;50.150;8.756;2023-12-20T13:07:38;5.43;;;1.80;;
17171;SDS011;8701;50.150;8.756;2023-12-20T13:11:42;7.20;;;1.20;;
17171;SDS011;8701;50.150;8.756;2023-12-20T13:15:44;3.23;;;1.33;;
17171;SDS011;8701;50.150;8.756;2023-12-20T13:19:51;4.53;;;1.73;;
17171;SDS011;8701;50.150;8.756;2023-12-20T13:23:53;6.10;;;1.57;;
17171;SDS011;8701;50.150;8.756;2023-12-20T13:27:57;3.90;;;1.60;;
17171;SDS011;8701;50.150;8.756;2023-12-20T13:32:00;4.50;;;2.50;;
17171;SDS011;8701;50.150;8.756;2023-12-20T13:36:04;5.07;;;1.67;;
17171;SDS011;8701;50.150;8.756;2023-12-20T13:40:07;7.03;;;1.67;;
17171;SDS011;8701;50.150;8.756;2023-12-20T13:44:11;5.20;;;1.70;;
17171;SDS011;8701;50.150;8.756;2023-12-20T13:48:14;5.90;;;1.70;;
17171;SDS011;8701;50.150;8.756;2023-12-20T13:52:18;4.33;;;1.80;;
17171;SDS011;8701;50.150;8.756;2023-12-20T13:56:20;2.77;;;2.13;;
17171;SDS011;8701;50.150;8.756;2023-12-20T14:00:25;3.47;;;1.50;;
17171;SDS011;8701;50.150;8.756;2023-12-20T14:04:27;6.40;;;2.00;;
17171;SDS011;8701;50.150;8.756;2023-12-20T14:08:29;4.43;;;1.70;;
17171;SDS011;8701;50.150;8.756;2023-12-20T14:12:31;10.13;;;2.10;;
17171;SDS011;8701;50.150;8.756;2023-12-20T14:16:38;4.87;;;1.87;;
17171;SDS011;8701;50.150;8.756;2023-12-20T14:20:40;2.60;;;1.53;;
17171;SDS011;8701;50.150;8.756;2023-12-20T14:24:45;5.30;;;1.67;;
17171;SDS011;8701;50.150;8.756;2023-12-20T14:28:47;3.80;;;1.80;;
17171;SDS011;8701;50.150;8.756;2023-12-20T14:32:50;6.60;;;1.93;;
17171;SDS011;8701;50.150;8.756;2023-12-20T14:36:52;4.40;;;2.10;;
17171;SDS011;8701;50.150;8.756;2023-12-20T14:40:55;3.03;;;1.70;;
17171;SDS011;8701;50.150;8.756;2023-12-20T14:44:57;4.77;;;1.77;;
17171;SDS011;8701;50.150;8.756;2023-12-20T14:49:00;7.60;;;1.90;;
17171;SDS011;8701;50.150;8.756;2023-12-20T14:53:03;3.80;;;2.03;;
17171;SDS011;8701;50.150;8.756;2023-12-20T14:57:05;4.93;;;1.50;;
17171;SDS011;8701;50.150;8.756;2023-12-20T15:01:09;2.93;;;1.60;;
17171;SDS011;8701;50.150;8.756;2023-12-20T15:05:12;10.27;;;2.70;;
17171;SDS011;8701;50.150;8.756;2023-12-20T15:09:15;2.50;;;1.53;;
17171;SDS011;8701;50.150;8.756;2023-12-20T15:13:17;4.63;;;1.53;;
17171;SDS011;8701;50.150;8.756;2023-12-20T15:17:19;2.30;;;1.67;;
17171;SDS011;8701;50.150;8.756;2023-12-20T15:21:23;4.90;;;1.70;;
17171;SDS011;8701;50.150;8.756;2023-12-20T15:25:32;1.57;;;1.40;;
17171;SDS011;8701;50.150;8.756;2023-12-20T15:29:34;2.10;;;1.20;;
17171;SDS011;8701;50.150;8.756;2023-12-20T15:33:37;3.30;;;1.20;;
17171;SDS011;8701;50.150;8.756;2023-12-20T15:37:42;3.93;;;1.37;;
17171;SDS011;8701;50.150;8.756;2023-12-20T15:41:44;7.23;;;1.17;;
17171;SDS011;8701;50.150;8.756;2023-12-20T15:45:46;1.70;;;1.23;;
17171;SDS011;8701;50.150;8.756;2023-12-20T15:49:49;1.60;;;1.17;;
17171;SDS011;8701;50.150;8.756;2023-12-20T15:53:52;3.43;;;1.30;;
17171;SDS011;8701;50.150;8.756;2023-12-20T15:57:55;3.00;;;1.20;;
17171;SDS011;8701;50.150;8.756;2023-12-20T16:01:57;3.07;;;1.50;;
17171;SDS011;8701;50.150;8.756;2023-12-20T16:05:59;2.17;;;1.30;;
17171;SDS011;8701;50.150;8.756;2023-12-20T16:10:03;3.90;;;1.47;;
17171;SDS011;8701;50.150;8.756;2023-12-20T16:14:05;4.60;;;1.60;;
17171;SDS011;8701;50.150;8.756;2023-12-20T16:18:09;6.97;;;1.53;;
17171;SDS011;8701;50.150;8.756;2023-12-20T16:22:12;13.70;;;1.93;;
17171;SDS011;8701;50.150;8.756;2023-12-20T16:26:15;9.80;;;1.77;;
17171;SDS011;8701;50.150;8.756;2023-12-20T16:30:18;6.70;;;1.60;;
17171;SDS011;8701;50.150;8.756;2023-12-20T16:34:20;3.97;;;1.60;;
17171;SDS011;8701;50.150;8.756;2023-12-20T16:38:22;3.83;;;1.60;;
17171;SDS011;8701;50.150;8.756;2023-12-20T16:42:26;4.47;;;1.53;;
17171;SDS011;8701;50.150;8.756;2023-12-20T16:46:28;2.93;;;1.60;;
17171;SDS011;8701;50.150;8.756;2023-12-20T16:50:30;1.63;;;1.53;;
17171;SDS011;8701;50.150;8.756;2023-12-20T16:54:33;5.80;;;1.40;;
17171;SDS011;8701;50.150;8.756;2023-12-20T16:58:36;8.93;;;2.17;;
17171;SDS011;8701;50.150;8.756;2023-12-20T17:02:38;3.60;;;1.60;;
17171;SDS011;8701;50.150;8.756;2023-12-20T17:06:41;4.37;;;1.70;;
17171;SDS011;8701;50.150;8.756;2023-12-20T17:10:43;7.83;;;1.87;;
17171;SDS011;8701;50.150;8.756;2023-12-20T17:14:47;4.97;;;1.80;;
17171;SDS011;8701;50.150;8.756;2023-12-20T17:18:49;4.00;;;1.70;;
17171;SDS011;8701;50.150;8.756;2023-12-20T17:22:51;3.17;;;1.80;;
17171;SDS011;8701;50.150;8.756;2023-12-20T17:26:54;9.93;;;2.00;;
17171;SDS011;8701;50.150;8.756;2023-12-20T17:30:58;8.40;;;1.90;;
17171;SDS011;8701;50.150;8.756;2023-12-20T17:35:01;5.20;;;2.30;;
17171;SDS011;8701;50.150;8.756;2023-12-20T17:39:03;3.30;;;1.70;;
17171;SDS011;8701;50.150;8.756;2023-12-20T17:43:07;4.83;;;1.40;;
17171;SDS011;8701;50.150;8.756;2023-12-20T17:47:11;1.93;;;1.57;;
17171;SDS011;8701;50.150;8.756;2023-12-20T17:51:16;2.57;;;1.60;;
17171;SDS011;8701;50.150;8.756;2023-12-20T17:55:18;5.17;;;1.70;;
17171;SDS011;8701;50.150;8.756;2023-12-20T17:59:20;5.30;;;2.10;;
17171;SDS011;8701;50.150;8.756;2023-12-20T18:03:23;7.20;;;1.90;;
17171;SDS011;8701;50.150;8.756;2023-12-20T18:07:26;6.40;;;1.67;;
17171;SDS011;8701;50.150;8.756;2023-12-20T18:11:28;2.67;;;2.00;;
17171;SDS011;8701;50.150;8.756;2023-12-20T18:15:30;5.70;;;2.10;;
17171;SDS011;8701;50.150;8.756;2023-12-20T18:19:34;3.10;;;1.70;;
17171;SDS011;8701;50.150;8.756;2023-12-20T18:23:36;7.50;;;2.13;;
17171;SDS011;8701;50.150;8.756;2023-12-20T18:27:38;2.23;;;1.30;;
17171;SDS011;8701;50.150;8.756;2023-12-20T18:31:40;5.20;;;1.60;;
17171;SDS011;8701;50.150;8.756;2023-12-20T18:35:44;4.20;;;1.60;;
17171;SDS011;8701;50.150;8.756;2023-12-20T18:39:47;2.43;;;1.70;;
17171;SDS011;8701;50.150;8.756;2023-12-20T18:43:51;5.40;;;1.57;;
17171;SDS011;8701;50.150;8.756;2023-12-20T18:47:53;3.97;;;1.80;;
17171;SDS011;8701;50.150;8.756;2023-12-20T18:51:58;8.47;;;2.17;;
17171;SDS011;8701;50.150;8.756;2023-12-20T18:56:00;3.83;;;1.97;;
17171;SDS011;8701;50.150;8.756;2023-12-20T19:00:03;4.73;;;1.97;;
17171;SDS011;8701;50.150;8.756;2023-12-20T19:04:10;5.20;;;1.67;;
17171;SDS011;8701;50.150;8.756;2023-12-20T19:08:13;6.33;;;2.37;;
17171;SDS011;8701;50.150;8.756;2023-12-20T19:12:16;8.90;;;3.60;;
17171;SDS011;8701;50.150;8.756;2023-12-20T19:16:18;2.03;;;1.83;;
17171;SDS011;8701;50.150;8.756;2023-12-20T19:20:21;2.97;;;1.70;;
17171;SDS011;8701;50.150;8.756;2023-12-20T19:24:24;11.63;;;2.43;;
17171;SDS011;8701;50.150;8.756;2023-12-20T19:28:27;5.30;;;1.63;;
17171;SDS011;8701;50.150;8.756;2023-12-20T19:32:29;3.93;;;1.60;;
17171;SDS011;8701;50.150;8.756;2023-12-20T19:36:31;9.60;;;2.17;;
17171;SDS011;8701;50.150;8.756;2023-12-20T19:40:35;9.80;;;3.40;;
17171;SDS011;8701;50.150;8.756;2023-12-20T19:44:37;3.93;;;2.00;;
17171;SDS011;8701;50.150;8.756;2023-12-20T19:48:40;4.40;;;2.33;;
17171;SDS011;8701;50.150;8.756;2023-12-20T19:52:42;3.53;;;2.10;;
17171;SDS011;8701;50.150;8.756;2023-12-20T19:56:46;4.00;;;2.37;;
17171;SDS011;8701;50.150;8.756;2023-12-20T20:00:48;7.73;;;2.20;;
17171;SDS011;8701;50.150;8.756;2023-12-20T20:04:51;5.20;;;2.30;;
17171;SDS011;8701;50.150;8.756;2023-12-20T20:08:53;3.17;;;2.00;;
17171;SDS011;8701;50.150;8.756;2023-12-20T20:12:57;3.90;;;2.30;;
17171;SDS011;8701;50.150;8.756;2023-12-20T20:17:00;3.47;;;2.00;;
17171;SDS011;8701;50.150;8.756;2023-12-20T20:21:02;8.90;;;2.67;;
17171;SDS011;8701;50.150;8.756;2023-12-20T20:25:05;7.10;;;2.43;;
17171;SDS011;8701;50.150;8.756;2023-12-20T20:29:09;2.17;;;1.93;;
17171;SDS011;8701;50.150;8.756;2023-12-20T20:33:12;7.40;;;2.60;;
17171;SDS011;8701;50.150;8.756;2023-12-20T20:37:14;4.07;;;2.30;;
17171;SDS011;8701;50.150;8.756;2023-12-20T20:41:16;3.27;;;2.60;;
17171;SDS011;8701;50.150;8.756;2023-12-20T20:45:20;4.60;;;2.43;;
17171;SDS011;8701;50.150;8.756;2023-12-20T20:49:23;2.93;;;1.90;;
17171;SDS011;8701;50.150;8.756;2023-12-20T20:53:25;7.13;;;2.30;;
17171;SDS011;8701;50.150;8.756;2023-12-20T20:57:27;3.63;;;2.27;;
17171;SDS011;8701;50.150;8.756;2023-12-20T21:01:31;5.47;;;2.20;;
17171;SDS011;8701;50.150;8.756;2023-12-20T21:05:34;4.57;;;2.83;;
17171;SDS011;8701;50.150;8.756;2023-12-20T21:09:36;4.47;;;2.30;;
17171;SDS011;8701;50.150;8.756;2023-12-20T21:13:38;8.00;;;2.70;;
17171;SDS011;8701;50.150;8.756;2023-12-20T21:17:42;5.23;;;2.40;;
17171;SDS011;8701;50.150;8.756;2023-12-20T21:21:45;2.93;;;2.50;;
17171;SDS011;8701;50.150;8.756;2023-12-20T21:25:47;4.07;;;2.30;;
17171;SDS011;8701;50.150;8.756;2023-12-20T21:29:50;2.30;;;2.10;;
17171;SDS011;8701;50.150;8.756;2023-12-20T21:33:53;5.23;;;2.73;;
17171;SDS011;8701;50.150;8.756;2023-12-20T21:37:56;4.37;;;2.30;;
17171;SDS011;8701;50.150;8.756;2023-12-20T21:41:58;6.03;;;3.23;;
17171;SDS011;8701;50.150;8.756;2023-12-20T21:46:01;4.23;;;2.43;;
17171;SDS011;8701;50.150;8.756;2023-12-20T21:50:06;3.73;;;2.90;;
17171;SDS011;8701;50.150;8.756;2023-12-20T21:54:08;5.00;;;2.80;;
17171;SDS011;8701;50.150;8.756;2023-12-20T21:58:12;7.63;;;2.80;;
17171;SDS011;8701;50.150;8.756;2023-12-20T22:02:14;3.60;;;2.63;;
17171;SDS011;8701;50.150;8.756;2023-12-20T22:06:17;6.47;;;2.60;;
17171;SDS011;8701;50.150;8.756;2023-12-20T22:10:19;7.50;;;2.50;;
17171;SDS011;8701;50.150;8.756;2023-12-20T22:14:22;3.87;;;2.60;;
17171;SDS011;8701;50.150;8.756;2023-12-20T22:18:26;5.60;;;2.90;;
17171;SDS011;8701;50.150;8.756;2023-12-20T22:22:30;3.87;;;2.67;;
17171;SDS011;8701;50.150;8.756;2023-12-20T22:26:32;6.00;;;2.50;;
17171;SDS011;8701;50.150;8.756;2023-12-20T22:30:34;9.70;;;3.40;;
17171;SDS011;8701;50.150;8.756;2023-12-20T22:34:37;9.27;;;2.80;;
17171;SDS011;8701;50.150;8.756;2023-12-20T22:38:41;4.07;;;2.53;;
17171;SDS011;8701;50.150;8.756;2023-12-20T22:42:43;4.90;;;2.77;;
17171;SDS011;8701;50.150;8.756;2023-12-20T22:46:46;9.90;;;2.47;;
17171;SDS011;8701;50.150;8.756;2023-12-20T22:50:48;6.23;;;2.60;;
17171;SDS011;8701;50.150;8.756;2023-12-20T22:54:52;4.43;;;2.40;;
17171;SDS011;8701;50.150;8.756;2023-12-20T22:58:54;8.10;;;2.60;;
17171;SDS011;8701;50.150;8.756;2023-12-20T23:02:56;2.40;;;2.20;;
17171;SDS011;8701;50.150;8.756;2023-12-20T23:06:58;4.17;;;2.30;;
17171;SDS011;8701;50.150;8.756;2023-12-20T23:11:02;2.57;;;2.37;;
17171;SDS011;8701;50.150;8.756;2023-12-20T23:15:05;3.73;;;2.13;;
17171;SDS011;8701;50.150;8.756;2023-12-20T23:19:07;6.53;;;2.47;;
17171;SDS011;8701;50.150;8.756;2023-12-20T23:23:11;2.67;;;2.10;;
17171;SDS011;8701;50.150;8.756;2023-12-20T23:27:14;3.00;;;1.87;;
17171;SDS011;8701;50.150;8.756;2023-12-20T23:31:21;3.90;;;2.20;;
17171;SDS011;8701;50.150;8.756;2023-12-20T23:35:25;1.80;;;1.70;;
17171;SDS011;8701;50.150;8.756;2023-12-20T23:39:27;4.10;;;2.33;;
17171;SDS011;8701;50.150;8.756;2023-12-20T23:43:30;2.63;;;1.93;;
17171;SDS011;8701;50.150;8.756;2023-12-20T23:47:33;2.17;;;2.00;;
17171;SDS011;8701;50.150;8.756;2023-12-20T23:51:35;6.40;;;2.77;;
17171;SDS011;8701;50.150;8.756;2023-12-20T23:55:37;4.50;;;2.27;;
17171;SDS011;8701;50.150;8.756;2023-12-20T23:59:40;2.20;;;2.00;;
